Time;durP1;ratioP1;P1;durP2;ratioP2;P2;SDS_P1;SDS_P2;PMS_P1;PMS_P2;Temp;Humidity;BMP_temperature;BMP_pressure;BME280_temperature;BME280_humidity;BME280_pressure;Samples;Min_cycle;Max_cycle;Signal;HPM_P1;HPM_P2
2023/01/30 00:01:29;;;;;;;;;;;7.10;99.90;;;;;;7345339;19;109676;-88
2023/01/30 00:03:56;;;;;;;;;;;7.00;99.90;;;;;;7339724;19;111941;-89
2023/01/30 00:06:24;;;;;;;;;;;7.10;99.90;;;;;;7340247;19;109113;-89
2023/01/30 00:08:51;;;;;;;;;;;7.10;99.90;;;;;;7343448;19;108455;-88
2023/01/30 00:11:18;;;;;;;;;;;7.10;99.90;;;;;;7340338;19;112662;-88
2023/01/30 00:13:46;;;;;;;;;;;7.10;99.90;;;;;;7339876;19;108901;-88
2023/01/30 00:16:13;;;;;;;;;;;7.10;99.90;;;;;;7340336;19;109329;-88
2023/01/30 00:18:40;;;;;;;;;;;7.10;99.90;;;;;;7338660;19;110396;-88
2023/01/30 00:21:08;;;;;;;;;;;7.10;99.90;;;;;;7339732;19;109433;-88
2023/01/30 00:23:36;;;;;;;;;;;7.10;99.90;;;;;;7345542;19;111690;-88
2023/01/30 00:26:04;;;;;;;;;;;7.10;99.90;;;;;;7341358;19;108552;-88
2023/01/30 00:28:31;;;;;;;;;;;7.10;99.90;;;;;;7338729;19;111769;-89
2023/01/30 00:30:58;;;;;;;;;;;7.20;99.90;;;;;;7340668;19;110789;-89
2023/01/30 00:33:25;;;;;;;;;;;7.20;99.90;;;;;;7338536;19;108797;-89
2023/01/30 00:35:53;;;;;;;;;;;7.10;99.90;;;;;;7339961;19;112499;-88
2023/01/30 00:38:20;;;;;;;;;;;7.20;99.90;;;;;;7339920;19;109983;-88
2023/01/30 00:40:47;;;;;;;;;;;7.20;99.90;;;;;;7342834;19;109131;-89
2023/01/30 00:47:04;;;;;;;;;;;7.20;99.90;;;;;;7341889;19;108683;-88
2023/01/30 00:49:16;;;;;;;;;;;7.20;99.90;;;;;;7340067;19;111726;-88
2023/01/30 00:51:43;;;;;;;;;;;7.20;99.90;;;;;;7337497;19;112006;-88
2023/01/30 00:54:10;;;;;;;;;;;7.20;99.90;;;;;;7337878;19;108433;-88
2023/01/30 00:56:37;;;;;;;;;;;7.20;99.90;;;;;;7338632;19;109535;-89
2023/01/30 00:59:04;;;;;;;;;;;7.30;99.90;;;;;;7338015;19;110466;-89
2023/01/30 01:01:31;;;;;;;;;;;7.20;99.90;;;;;;7340157;19;109359;-89
2023/01/30 01:03:58;;;;;;;;;;;7.30;99.90;;;;;;7340070;19;111610;-89
2023/01/30 01:06:25;;;;;;;;;;;7.30;99.90;;;;;;7345028;19;110945;-88
2023/01/30 01:08:53;;;;;;;;;;;7.30;99.90;;;;;;7337997;19;109530;-88
2023/01/30 01:11:25;;;;;;;;;;;7.30;99.90;;;;;;7341230;19;112682;-89
2023/01/30 01:13:57;;;;;;;;;;;7.20;99.90;;;;;;7339227;19;108528;-90
2023/01/30 01:16:28;;;;;;;;;;;7.30;99.90;;;;;;7340280;19;109288;-88
2023/01/30 01:18:55;;;;;;;;;;;7.30;99.90;;;;;;7337915;19;112649;-88
2023/01/30 01:21:22;;;;;;;;;;;7.30;99.90;;;;;;7337941;19;108354;-89
2023/01/30 01:23:53;;;;;;;;;;;7.30;99.90;;;;;;7338201;19;112061;-90
2023/01/30 01:26:20;;;;;;;;;;;7.30;99.90;;;;;;7337455;19;112655;-88
2023/01/30 01:28:47;;;;;;;;;;;7.30;99.90;;;;;;7343818;19;109089;-88
2023/01/30 01:31:15;;;;;;;;;;;7.30;99.90;;;;;;7337939;19;110166;-88
2023/01/30 01:33:42;;;;;;;;;;;7.30;99.90;;;;;;7337863;19;109056;-89
2023/01/30 01:36:09;;;;;;;;;;;7.30;99.90;;;;;;7339490;19;112150;-88
2023/01/30 01:38:40;;;;;;;;;;;7.30;99.90;;;;;;7341009;19;110544;-90
2023/01/30 01:41:08;;;;;;;;;;;7.30;99.90;;;;;;7337351;19;108479;-89
2023/01/30 01:43:37;;;;;;;;;;;7.30;99.90;;;;;;7337898;19;109275;-89
2023/01/30 01:46:09;;;;;;;;;;;7.30;99.90;;;;;;7338491;19;109191;-90
2023/01/30 01:48:54;;;;;;;;;;;7.30;99.90;;;;;;7337540;19;108464;-88
2023/01/30 01:51:41;;;;;;;;;;;7.30;99.90;;;;;;7343085;19;111537;-88
2023/01/30 01:54:10;;;;;;;;;;;7.30;99.90;;;;;;7339421;19;110101;-89
2023/01/30 01:56:39;;;;;;;;;;;7.30;99.90;;;;;;7337459;19;112264;-90
2023/01/30 01:59:26;;;;;;;;;;;7.30;99.90;;;;;;7338605;19;113045;-88
2023/01/30 02:01:56;;;;;;;;;;;7.30;99.90;;;;;;7338274;19;108918;-89
2023/01/30 02:07:09;;;;;;;;;;;7.40;99.90;;;;;;7337644;19;109562;-88
2023/01/30 02:09:36;;;;;;;;;;;7.40;99.90;;;;;;7338870;19;108564;-89
2023/01/30 02:12:04;;;;;;;;;;;7.40;99.90;;;;;;7339916;19;109074;-88
2023/01/30 02:14:34;;;;;;;;;;;7.40;99.90;;;;;;7342432;19;110104;-88
2023/01/30 02:17:01;;;;;;;;;;;7.40;99.90;;;;;;7338222;19;110609;-89
2023/01/30 02:19:47;;;;;;;;;;;7.40;99.90;;;;;;7338498;19;109167;-89
2023/01/30 02:22:19;;;;;;;;;;;7.40;99.90;;;;;;7344544;19;108571;-88
2023/01/30 02:25:05;;;;;;;;;;;7.40;99.90;;;;;;7344470;19;108891;-89
2023/01/30 02:27:41;;;;;;;;;;;7.40;99.90;;;;;;7343896;19;112123;-88
2023/01/30 02:30:08;;;;;;;;;;;7.40;99.90;;;;;;7344871;19;110104;-90
2023/01/30 02:32:35;;;;;;;;;;;7.50;99.90;;;;;;7345912;19;109854;-89
2023/01/30 02:35:20;;;;;;;;;;;7.50;99.90;;;;;;7343370;19;112144;-89
2023/01/30 02:37:53;;;;;;;;;;;7.50;99.90;;;;;;7351834;19;110076;-90
2023/01/30 02:40:20;;;;;;;;;;;7.50;99.90;;;;;;7345042;19;110150;-90
2023/01/30 02:42:52;;;;;;;;;;;7.50;99.90;;;;;;7347996;19;108850;-89
2023/01/30 02:45:25;;;;;;;;;;;7.50;99.90;;;;;;7340569;19;112162;-90
2023/01/30 02:47:59;;;;;;;;;;;7.50;99.90;;;;;;7343368;19;112757;-90
2023/01/30 02:50:44;;;;;;;;;;;7.60;99.90;;;;;;7345631;19;109380;-90
2023/01/30 02:53:12;;;;;;;;;;;7.60;99.90;;;;;;7338002;19;112284;-89
2023/01/30 02:55:40;;;;;;;;;;;7.60;99.90;;;;;;7342988;19;112594;-90
2023/01/30 02:58:07;;;;;;;;;;;7.60;99.90;;;;;;7348144;19;108449;-89
2023/01/30 03:00:43;;;;;;;;;;;7.60;99.90;;;;;;7341467;19;111147;-89
2023/01/30 03:03:49;;;;;;;;;;;7.60;99.90;;;;;;7345895;19;108783;-89
2023/01/30 03:06:18;;;;;;;;;;;7.60;99.90;;;;;;7341902;19;108521;-89
2023/01/30 03:09:04;;;;;;;;;;;7.60;99.90;;;;;;7341451;19;113242;-88
2023/01/30 03:11:38;;;;;;;;;;;7.60;99.90;;;;;;7340423;19;109020;-90
2023/01/30 03:14:12;;;;;;;;;;;7.70;99.90;;;;;;7340346;19;109461;-88
2023/01/30 03:16:39;;;;;;;;;;;7.70;99.90;;;;;;7340588;19;114466;-88
2023/01/30 03:19:11;;;;;;;;;;;7.80;99.90;;;;;;7341857;19;108692;-89
2023/01/30 03:21:43;;;;;;;;;;;7.70;99.90;;;;;;7345560;19;109523;-89
2023/01/30 03:24:10;;;;;;;;;;;7.70;99.90;;;;;;7342257;19;108488;-90
2023/01/30 03:26:45;;;;;;;;;;;7.80;99.90;;;;;;7340323;19;109265;-88
2023/01/30 03:29:12;;;;;;;;;;;7.80;99.90;;;;;;7341694;19;110390;-88
2023/01/30 03:31:39;;;;;;;;;;;7.90;99.90;;;;;;7338359;19;108750;-90
2023/01/30 03:34:07;;;;;;;;;;;7.90;99.90;;;;;;7340595;19;111726;-89
2023/01/30 03:36:36;;;;;;;;;;;7.90;99.90;;;;;;7339836;19;112686;-90
2023/01/30 03:39:03;;;;;;;;;;;7.90;99.90;;;;;;7344369;19;110440;-89
2023/01/30 03:41:33;;;;;;;;;;;7.90;99.90;;;;;;7343349;19;112970;-89
2023/01/30 03:44:00;;;;;;;;;;;8.00;99.90;;;;;;7350967;19;110320;-90
2023/01/30 03:46:27;;;;;;;;;;;8.00;99.90;;;;;;7344053;19;108828;-89
2023/01/30 03:48:54;;;;;;;;;;;8.00;99.90;;;;;;7342412;19;110427;-89
2023/01/30 03:51:20;;;;;;;;;;;8.00;99.90;;;;;;7341860;19;108313;-88
2023/01/30 03:53:47;;;;;;;;;;;8.00;99.90;;;;;;7342944;19;108360;-90
2023/01/30 03:56:14;;;;;;;;;;;8.00;99.90;;;;;;7342694;19;112309;-89
2023/01/30 03:58:41;;;;;;;;;;;7.90;99.90;;;;;;7343041;19;108450;-89
2023/01/30 04:01:08;;;;;;;;;;;7.90;99.90;;;;;;7342528;19;111807;-90
2023/01/30 04:03:35;;;;;;;;;;;7.90;99.90;;;;;;7341058;19;113626;-89
2023/01/30 04:06:02;;;;;;;;;;;8.00;99.90;;;;;;7349735;19;108406;-89
2023/01/30 04:08:29;;;;;;;;;;;7.90;99.90;;;;;;7345819;19;113051;-90
2023/01/30 04:10:58;;;;;;;;;;;7.90;99.90;;;;;;7342594;19;108264;-90
2023/01/30 04:13:25;;;;;;;;;;;8.00;99.90;;;;;;7340740;19;112040;-89
2023/01/30 04:15:52;;;;;;;;;;;7.90;99.90;;;;;;7340553;19;114038;-90
2023/01/30 04:18:19;;;;;;;;;;;8.00;99.90;;;;;;7343696;19;109364;-89
2023/01/30 04:20:46;;;;;;;;;;;8.00;99.90;;;;;;7342481;19;111414;-88
2023/01/30 04:23:13;;;;;;;;;;;8.00;99.90;;;;;;7341832;19;112386;-89
2023/01/30 04:25:40;;;;;;;;;;;7.90;99.90;;;;;;7340836;19;108706;-89
2023/01/30 04:28:07;;;;;;;;;;;8.00;99.90;;;;;;7346599;19;111666;-89
2023/01/30 04:30:34;;;;;;;;;;;8.00;99.90;;;;;;7342315;19;108337;-88
2023/01/30 04:33:01;;;;;;;;;;;8.00;99.90;;;;;;7340511;19;108976;-90
2023/01/30 04:35:28;;;;;;;;;;;8.00;99.90;;;;;;7339703;19;110766;-90
2023/01/30 04:37:55;;;;;;;;;;;8.00;99.90;;;;;;7343401;19;108781;-90
2023/01/30 04:40:24;;;;;;;;;;;8.00;99.90;;;;;;7341260;19;111635;-90
2023/01/30 04:42:51;;;;;;;;;;;8.00;99.90;;;;;;7336868;19;109931;-90
2023/01/30 04:45:18;;;;;;;;;;;8.10;99.90;;;;;;7339648;19;108487;-89
2023/01/30 04:47:45;;;;;;;;;;;8.00;99.90;;;;;;7346089;19;111956;-89
2023/01/30 04:50:13;;;;;;;;;;;8.10;99.90;;;;;;7338870;19;108499;-90
2023/01/30 04:52:40;;;;;;;;;;;8.00;99.90;;;;;;7337314;19;111147;-90
2023/01/30 04:55:07;;;;;;;;;;;8.10;99.90;;;;;;7338766;19;109696;-90
2023/01/30 04:57:34;;;;;;;;;;;8.10;99.90;;;;;;7335263;19;108829;-90
2023/01/30 05:00:01;;;;;;;;;;;8.10;99.90;;;;;;7337031;19;109299;-90
2023/01/30 05:02:28;;;;;;;;;;;8.10;99.90;;;;;;7335747;19;111621;-89
2023/01/30 05:04:55;;;;;;;;;;;8.20;99.90;;;;;;7338611;19;109369;-89
2023/01/30 05:07:22;;;;;;;;;;;8.20;99.90;;;;;;7337470;19;109553;-89
2023/01/30 05:09:49;;;;;;;;;;;8.20;99.90;;;;;;7346538;19;109345;-89
2023/01/30 05:12:16;;;;;;;;;;;8.20;99.90;;;;;;7341687;19;109440;-89
2023/01/30 05:14:45;;;;;;;;;;;8.30;99.90;;;;;;7340411;19;109499;-90
2023/01/30 05:17:12;;;;;;;;;;;8.20;99.90;;;;;;7349345;19;108748;-90
2023/01/30 05:19:39;;;;;;;;;;;8.30;99.90;;;;;;7360576;19;108397;-89
2023/01/30 05:22:06;;;;;;;;;;;8.30;99.90;;;;;;7358397;19;111733;-89
2023/01/30 05:24:33;;;;;;;;;;;8.30;99.90;;;;;;7360617;19;109977;-91
2023/01/30 05:27:00;;;;;;;;;;;8.30;99.90;;;;;;7355604;19;109454;-90
2023/01/30 05:29:27;;;;;;;;;;;8.30;99.90;;;;;;7355195;19;109108;-89
2023/01/30 05:31:54;;;;;;;;;;;8.30;99.90;;;;;;7358892;19;108572;-90
2023/01/30 05:34:21;;;;;;;;;;;8.30;99.90;;;;;;7352631;19;109160;-88
2023/01/30 05:36:48;;;;;;;;;;;8.40;99.90;;;;;;7344525;19;110041;-89
2023/01/30 05:39:15;;;;;;;;;;;8.50;99.90;;;;;;7348153;19;111819;-89
2023/01/30 05:41:42;;;;;;;;;;;8.40;99.90;;;;;;7337759;19;114579;-89
2023/01/30 05:44:09;;;;;;;;;;;8.40;99.90;;;;;;7338076;19;108738;-89
2023/01/30 05:46:38;;;;;;;;;;;8.40;99.90;;;;;;7336841;19;111219;-89
2023/01/30 05:49:06;;;;;;;;;;;8.50;99.90;;;;;;7337092;19;110252;-88
2023/01/30 05:51:33;;;;;;;;;;;8.50;99.90;;;;;;7336364;19;108649;-89
2023/01/30 05:54:00;;;;;;;;;;;8.50;99.90;;;;;;7343514;19;111468;-89
2023/01/30 05:56:27;;;;;;;;;;;8.40;99.90;;;;;;7345371;19;108454;-89
2023/01/30 05:58:55;;;;;;;;;;;8.40;99.90;;;;;;7345302;19;109580;-90
2023/01/30 06:01:22;;;;;;;;;;;8.40;99.90;;;;;;7343996;19;112094;-89
2023/01/30 06:03:49;;;;;;;;;;;8.50;99.90;;;;;;7342955;19;108615;-89
2023/01/30 06:06:16;;;;;;;;;;;8.50;99.90;;;;;;7345683;19;109149;-92
2023/01/30 06:08:43;;;;;;;;;;;8.50;99.90;;;;;;7346143;19;110469;-92
2023/01/30 06:11:12;;;;;;;;;;;8.50;99.90;;;;;;7346016;19;108548;-92
2023/01/30 06:13:39;;;;;;;;;;;8.60;99.90;;;;;;7344619;19;109441;-93
2023/01/30 06:16:07;;;;;;;;;;;8.60;99.90;;;;;;7352236;19;111420;-92
2023/01/30 06:18:34;;;;;;;;;;;8.60;99.90;;;;;;7345622;19;109344;-92
2023/01/30 06:21:01;;;;;;;;;;;8.50;99.90;;;;;;7345292;19;111691;-92
2023/01/30 06:23:28;;;;;;;;;;;8.60;99.90;;;;;;7343372;19;108558;-91
2023/01/30 06:25:56;;;;;;;;;;;8.60;99.90;;;;;;7345501;19;111831;-92
2023/01/30 06:28:23;;;;;;;;;;;8.50;99.90;;;;;;7343694;19;113695;-91
2023/01/30 06:30:50;;;;;;;;;;;8.60;99.90;;;;;;7345692;19;108348;-93
2023/01/30 06:33:17;;;;;;;;;;;8.50;99.90;;;;;;7344239;19;108416;-92
2023/01/30 06:35:47;;;;;;;;;;;8.60;99.90;;;;;;7344427;19;110112;-92
2023/01/30 06:38:14;;;;;;;;;;;8.60;99.90;;;;;;7350859;19;108344;-90
2023/01/30 06:40:44;;;;;;;;;;;8.60;99.90;;;;;;7341588;19;110524;-92
2023/01/30 06:43:12;;;;;;;;;;;8.60;99.90;;;;;;7343822;19;108579;-91
2023/01/30 06:45:39;;;;;;;;;;;8.60;99.90;;;;;;7342958;19;111522;-95
2023/01/30 06:48:07;;;;;;;;;;;8.60;99.90;;;;;;7347813;19;109266;-93
2023/01/30 06:50:35;;;;;;;;;;;8.60;99.90;;;;;;7345073;19;108687;-94
2023/01/30 06:53:04;;;;;;;;;;;8.60;99.90;;;;;;7342745;19;109791;-93
2023/01/30 06:55:33;;;;;;;;;;;8.60;99.90;;;;;;7344072;19;111504;-92
2023/01/30 06:58:01;;;;;;;;;;;8.60;99.90;;;;;;7346475;19;108501;-93
2023/01/30 07:00:29;;;;;;;;;;;8.60;99.90;;;;;;7344659;19;111910;-93
2023/01/30 07:02:56;;;;;;;;;;;8.60;99.90;;;;;;7342898;19;109542;-94
2023/01/30 07:05:23;;;;;;;;;;;8.70;99.90;;;;;;7343503;19;109700;-94
2023/01/30 07:07:50;;;;;;;;;;;8.70;99.90;;;;;;7346873;19;110655;-94
2023/01/30 07:10:17;;;;;;;;;;;8.70;99.90;;;;;;7345914;19;108618;-93
2023/01/30 07:12:45;;;;;;;;;;;8.70;99.90;;;;;;7344593;19;110666;-94
2023/01/30 07:15:13;;;;;;;;;;;8.70;99.90;;;;;;7343933;19;112831;-94
2023/01/30 07:17:40;;;;;;;;;;;8.70;99.90;;;;;;7343729;19;108459;-93
2023/01/30 07:20:08;;;;;;;;;;;8.70;99.90;;;;;;7347624;19;109446;-93
2023/01/30 07:22:36;;;;;;;;;;;8.70;99.90;;;;;;7342239;19;108324;-93
2023/01/30 07:25:03;;;;;;;;;;;8.70;99.90;;;;;;7345119;19;111719;-93
2023/01/30 07:27:30;;;;;;;;;;;8.70;99.90;;;;;;7343073;19;111905;-93
2023/01/30 07:29:58;;;;;;;;;;;8.70;99.90;;;;;;7347771;19;108644;-95
2023/01/30 07:32:25;;;;;;;;;;;8.70;99.90;;;;;;7348922;19;110504;-93
2023/01/30 07:34:52;;;;;;;;;;;8.70;99.90;;;;;;7349315;19;111924;-95
2023/01/30 07:37:34;;;;;;;;;;;8.60;99.90;;;;;;7355639;19;108214;-96
2023/01/30 07:40:15;;;;;;;;;;;8.70;99.90;;;;;;7367115;19;107826;-95
2023/01/30 07:42:42;;;;;;;;;;;8.70;99.90;;;;;;7358033;19;109287;-95
2023/01/30 07:45:13;;;;;;;;;;;8.70;99.90;;;;;;7361034;19;109269;-96
2023/01/30 07:47:53;;;;;;;;;;;8.60;99.90;;;;;;7346786;19;109207;-95
2023/01/30 07:50:22;;;;;;;;;;;8.60;99.90;;;;;;7357809;19;108848;-96
2023/01/30 07:52:54;;;;;;;;;;;8.60;99.90;;;;;;7355971;19;109947;-95
2023/01/30 07:55:21;;;;;;;;;;;8.50;99.90;;;;;;7345775;19;110669;-94
2023/01/30 07:57:48;;;;;;;;;;;8.50;99.90;;;;;;7345929;19;108532;-96
2023/01/30 08:00:16;;;;;;;;;;;8.40;99.90;;;;;;7351501;19;108297;-96
2023/01/30 08:02:43;;;;;;;;;;;8.40;99.90;;;;;;7350870;19;108209;-95
2023/01/30 08:05:10;;;;;;;;;;;8.40;99.90;;;;;;7352220;19;107956;-95
2023/01/30 08:07:38;;;;;;;;;;;8.40;99.90;;;;;;7345267;19;109251;-95
2023/01/30 08:10:06;;;;;;;;;;;8.40;99.90;;;;;;7363055;19;107942;-94
2023/01/30 08:12:38;;;;;;;;;;;8.30;99.90;;;;;;7346686;19;108682;-94
2023/01/30 08:15:06;;;;;;;;;;;8.30;99.90;;;;;;7344653;19;111002;-96
2023/01/30 08:18:08;;;;;;;;;;;8.30;99.90;;;;;;7374730;19;108372;-96
2023/01/30 08:20:49;;;;;;;;;;;8.30;99.90;;;;;;7339036;19;109398;-91
2023/01/30 08:23:16;;;;;;;;;;;8.30;99.90;;;;;;7336029;19;112980;-91
2023/01/30 08:25:43;;;;;;;;;;;8.30;99.90;;;;;;7333861;19;108465;-91
2023/01/30 08:28:10;;;;;;;;;;;8.30;99.90;;;;;;7336941;19;110309;-90
2023/01/30 08:30:37;;;;;;;;;;;8.30;99.90;;;;;;7337044;19;108348;-92
2023/01/30 08:33:04;;;;;;;;;;;8.30;99.90;;;;;;7334824;19;109105;-91
2023/01/30 08:35:31;;;;;;;;;;;8.40;99.90;;;;;;7337531;19;110227;-91
2023/01/30 08:37:58;;;;;;;;;;;8.40;99.90;;;;;;7336510;19;108903;-91
2023/01/30 08:40:25;;;;;;;;;;;8.40;99.90;;;;;;7333522;19;109169;-91
2023/01/30 08:42:52;;;;;;;;;;;8.50;99.90;;;;;;7335316;19;113086;-91
2023/01/30 08:45:19;;;;;;;;;;;8.50;99.90;;;;;;7335279;19;109352;-92
2023/01/30 08:47:46;;;;;;;;;;;8.50;99.90;;;;;;7336127;19;109039;-92
2023/01/30 08:50:13;;;;;;;;;;;8.50;99.90;;;;;;7342308;19;110589;-91
2023/01/30 08:52:40;;;;;;;;;;;8.60;99.90;;;;;;7334673;19;113283;-92
2023/01/30 08:55:08;;;;;;;;;;;8.70;99.90;;;;;;7336153;19;109735;-92
2023/01/30 08:57:35;;;;;;;;;;;8.70;99.90;;;;;;7333264;19;109074;-92
2023/01/30 09:00:03;;;;;;;;;;;8.70;99.90;;;;;;7335474;19;108928;-93
2023/01/30 09:02:30;;;;;;;;;;;8.70;99.90;;;;;;7337741;19;109434;-92
2023/01/30 09:04:57;;;;;;;;;;;8.70;99.90;;;;;;7336963;19;108905;-92
2023/01/30 09:07:26;;;;;;;;;;;8.70;99.90;;;;;;7333584;19;110142;-92
2023/01/30 09:09:53;;;;;;;;;;;8.70;99.90;;;;;;7343219;19;110418;-91
2023/01/30 09:12:20;;;;;;;;;;;8.70;99.90;;;;;;7335073;19;109394;-92
2023/01/30 09:14:48;;;;;;;;;;;8.80;99.90;;;;;;7334872;19;110528;-91
2023/01/30 09:17:17;;;;;;;;;;;8.90;99.90;;;;;;7336287;19;108827;-92
2023/01/30 09:19:44;;;;;;;;;;;8.90;99.90;;;;;;7334244;19;109589;-92
2023/01/30 09:22:11;;;;;;;;;;;9.00;99.90;;;;;;7333258;19;109416;-91
2023/01/30 09:24:38;;;;;;;;;;;9.00;99.90;;;;;;7334883;19;108484;-91
2023/01/30 09:27:05;;;;;;;;;;;9.00;99.90;;;;;;7333555;19;112386;-93
2023/01/30 09:29:32;;;;;;;;;;;9.00;99.90;;;;;;7334878;19;112743;-92
2023/01/30 09:31:59;;;;;;;;;;;9.10;99.90;;;;;;7344609;19;109256;-92
2023/01/30 09:34:28;;;;;;;;;;;9.10;99.90;;;;;;7340408;19;110288;-92
2023/01/30 09:36:56;;;;;;;;;;;9.20;99.90;;;;;;7342059;19;109706;-91
2023/01/30 09:39:23;;;;;;;;;;;9.30;99.90;;;;;;7341116;19;111365;-91
2023/01/30 09:41:59;;;;;;;;;;;9.20;99.90;;;;;;7338674;19;112879;-91
2023/01/30 09:44:29;;;;;;;;;;;9.30;99.90;;;;;;7341234;19;109028;-91
2023/01/30 09:47:01;;;;;;;;;;;9.40;99.90;;;;;;7340603;19;108422;-91
2023/01/30 09:49:45;;;;;;;;;;;9.30;99.90;;;;;;7338850;19;110806;-91
2023/01/30 09:52:18;;;;;;;;;;;9.40;99.90;;;;;;7340582;19;108330;-90
2023/01/30 09:54:45;;;;;;;;;;;9.40;99.90;;;;;;7347409;19;110719;-91
2023/01/30 09:57:17;;;;;;;;;;;9.50;99.90;;;;;;7337848;19;109349;-92
2023/01/30 09:59:52;;;;;;;;;;;9.50;99.90;;;;;;7340061;19;109809;-92
2023/01/30 10:02:19;;;;;;;;;;;9.50;99.90;;;;;;7341054;19;111653;-91
2023/01/30 10:04:46;;;;;;;;;;;9.50;99.90;;;;;;7342534;19;108434;-92
2023/01/30 10:07:35;;;;;;;;;;;9.50;99.90;;;;;;7339145;19;109529;-92
2023/01/30 10:10:11;;;;;;;;;;;9.60;99.90;;;;;;7341743;19;109405;-91
2023/01/30 10:12:57;;;;;;;;;;;9.60;99.90;;;;;;7337286;19;110696;-91
2023/01/30 10:15:27;;;;;;;;;;;9.70;99.90;;;;;;7339026;19;110212;-92
2023/01/30 10:18:05;;;;;;;;;;;9.80;99.90;;;;;;7346590;19;109479;-91
2023/01/30 10:20:44;;;;;;;;;;;9.70;99.90;;;;;;7338778;19;109179;-91
2023/01/30 10:23:31;;;;;;;;;;;9.70;99.90;;;;;;7339933;19;109396;-91
2023/01/30 10:26:09;;;;;;;;;;;9.70;99.90;;;;;;7338782;19;109200;-92
2023/01/30 10:28:42;;;;;;;;;;;9.80;99.90;;;;;;7342113;19;110205;-92
2023/01/30 10:31:18;;;;;;;;;;;9.90;99.90;;;;;;7335032;19;111642;-90
2023/01/30 10:34:06;;;;;;;;;;;9.80;99.90;;;;;;7337255;19;108898;-90
2023/01/30 10:36:36;;;;;;;;;;;9.80;99.90;;;;;;7336546;19;109746;-92
2023/01/30 10:39:09;;;;;;;;;;;9.70;99.90;;;;;;7341743;19;109541;-91
2023/01/30 10:41:38;;;;;;;;;;;9.80;99.90;;;;;;7346487;19;109847;-92
2023/01/30 10:44:10;;;;;;;;;;;9.80;99.90;;;;;;7350086;19;110225;-92
2023/01/30 10:47:02;;;;;;;;;;;9.70;99.90;;;;;;7350326;19;108112;-91
2023/01/30 10:49:43;;;;;;;;;;;9.80;99.90;;;;;;7348720;19;108154;-91
2023/01/30 10:52:13;;;;;;;;;;;9.90;99.90;;;;;;7346716;19;108234;-92
2023/01/30 10:54:54;;;;;;;;;;;9.90;99.90;;;;;;7347982;19;108498;-92
2023/01/30 10:57:31;;;;;;;;;;;10.00;99.90;;;;;;7350161;19;108245;-90
2023/01/30 11:00:03;;;;;;;;;;;10.00;99.90;;;;;;7347005;19;108715;-90
2023/01/30 11:02:30;;;;;;;;;;;10.00;99.90;;;;;;7345811;19;109453;-91
2023/01/30 11:04:59;;;;;;;;;;;10.00;99.90;;;;;;7352395;19;108677;-91
2023/01/30 11:07:29;;;;;;;;;;;9.90;99.90;;;;;;7344461;19;108756;-91
2023/01/30 11:09:57;;;;;;;;;;;9.90;99.90;;;;;;7351247;19;108273;-92
2023/01/30 11:12:24;;;;;;;;;;;9.90;99.90;;;;;;7343376;19;109126;-92
2023/01/30 11:14:53;;;;;;;;;;;9.90;99.90;;;;;;7344614;19;109078;-92
2023/01/30 11:17:26;;;;;;;;;;;9.90;99.90;;;;;;7342728;19;108400;-92
2023/01/30 11:19:56;;;;;;;;;;;10.00;99.90;;;;;;7339975;19;111016;-93
2023/01/30 11:22:25;;;;;;;;;;;10.00;99.90;;;;;;7338666;19;108537;-92
2023/01/30 11:25:01;;;;;;;;;;;10.00;99.90;;;;;;7342586;19;108826;-91
2023/01/30 11:27:29;;;;;;;;;;;10.00;99.90;;;;;;7338018;19;109033;-91
2023/01/30 11:30:14;;;;;;;;;;;10.00;99.90;;;;;;7339554;19;108706;-92
2023/01/30 11:32:45;;;;;;;;;;;10.00;99.90;;;;;;7338498;19;108399;-92
2023/01/30 11:35:28;;;;;;;;;;;10.00;99.90;;;;;;7338427;19;108944;-91
2023/01/30 11:38:09;;;;;;;;;;;10.00;99.90;;;;;;7339345;19;108714;-92
2023/01/30 11:40:39;;;;;;;;;;;10.00;99.90;;;;;;7338805;19;109779;-92
2023/01/30 11:43:11;;;;;;;;;;;9.90;99.90;;;;;;7337181;19;108831;-92
2023/01/30 11:45:46;;;;;;;;;;;10.00;99.90;;;;;;7336386;19;109163;-92
2023/01/30 11:48:18;;;;;;;;;;;10.10;99.90;;;;;;7338699;19;112638;-90
2023/01/30 11:51:06;;;;;;;;;;;10.00;99.90;;;;;;7336582;19;109088;-91
2023/01/30 11:53:36;;;;;;;;;;;10.00;99.90;;;;;;7335606;19;109692;-91
2023/01/30 11:56:05;;;;;;;;;;;9.90;99.90;;;;;;7333502;19;108978;-91
2023/01/30 11:58:37;;;;;;;;;;;9.90;99.90;;;;;;7335660;19;109295;-93
2023/01/30 12:01:06;;;;;;;;;;;10.00;99.90;;;;;;7335089;19;108279;-91
2023/01/30 12:03:38;;;;;;;;;;;10.00;99.90;;;;;;7336423;19;109028;-92
2023/01/30 12:06:05;;;;;;;;;;;9.90;99.90;;;;;;7341184;19;108791;-93
2023/01/30 12:08:36;;;;;;;;;;;10.00;99.90;;;;;;7337177;19;109470;-92
2023/01/30 12:11:28;;;;;;;;;;;10.00;99.90;;;;;;7342559;19;108294;-92
2023/01/30 12:14:18;;;;;;;;;;;10.00;99.90;;;;;;7338419;19;109272;-92
2023/01/30 12:16:59;;;;;;;;;;;10.00;99.90;;;;;;7340060;19;108762;-91
2023/01/30 12:19:47;;;;;;;;;;;10.00;99.90;;;;;;7339066;19;108719;-91
2023/01/30 12:22:20;;;;;;;;;;;10.00;99.90;;;;;;7341237;19;110452;-92
2023/01/30 12:25:20;;;;;;;;;;;9.90;99.90;;;;;;7340475;19;108939;-94
2023/01/30 12:27:47;;;;;;;;;;;10.00;99.90;;;;;;7337260;19;109245;-92
2023/01/30 12:30:17;;;;;;;;;;;9.90;99.90;;;;;;7336000;19;111350;-91
2023/01/30 12:32:45;;;;;;;;;;;9.90;99.90;;;;;;7339749;19;108401;-92
2023/01/30 12:35:21;;;;;;;;;;;9.90;99.90;;;;;;7342219;19;110200;-92
2023/01/30 12:38:06;;;;;;;;;;;10.00;99.90;;;;;;7337723;19;108424;-92
2023/01/30 12:40:45;;;;;;;;;;;10.00;99.90;;;;;;7337253;19;108617;-91
2023/01/30 12:43:32;;;;;;;;;;;10.00;99.90;;;;;;7328919;19;109508;-92
2023/01/30 12:46:12;;;;;;;;;;;10.00;99.90;;;;;;7331603;19;109220;-91
2023/01/30 12:48:54;;;;;;;;;;;10.00;99.90;;;;;;7329608;19;108695;-91
2023/01/30 12:51:39;;;;;;;;;;;9.90;99.90;;;;;;7328879;19;110207;-92
2023/01/30 12:54:19;;;;;;;;;;;10.00;99.90;;;;;;7332291;19;108638;-91
2023/01/30 12:56:49;;;;;;;;;;;10.00;99.90;;;;;;7340768;19;108837;-92
2023/01/30 12:59:19;;;;;;;;;;;10.00;99.90;;;;;;7339483;19;109710;-91
2023/01/30 13:01:58;;;;;;;;;;;10.00;99.90;;;;;;7339254;19;109687;-91
2023/01/30 13:04:37;;;;;;;;;;;10.10;99.90;;;;;;7330592;19;109678;-91
2023/01/30 13:07:34;;;;;;;;;;;10.10;99.90;;;;;;7331626;19;109514;-90
2023/01/30 13:10:34;;;;;;;;;;;10.10;99.90;;;;;;7334551;19;108675;-90
2023/01/30 13:13:03;;;;;;;;;;;10.20;99.90;;;;;;7330628;19;110766;-90
2023/01/30 13:15:30;;;;;;;;;;;10.30;99.90;;;;;;7330296;19;108681;-91
2023/01/30 13:17:58;;;;;;;;;;;10.40;99.90;;;;;;7328576;19;108892;-90
2023/01/30 13:20:44;;;;;;;;;;;10.40;99.90;;;;;;7327715;19;112045;-90
2023/01/30 13:23:19;;;;;;;;;;;10.70;99.90;;;;;;7332247;19;108406;-90
2023/01/30 13:25:46;;;;;;;;;;;10.70;99.90;;;;;;7332310;19;110278;-90
2023/01/30 13:28:15;;;;;;;;;;;10.70;99.90;;;;;;7329925;19;108856;-91
2023/01/30 13:30:44;;;;;;;;;;;10.70;99.90;;;;;;7329386;19;109148;-90
2023/01/30 13:33:13;;;;;;;;;;;10.70;99.90;;;;;;7329663;19;109242;-90
2023/01/30 13:35:44;;;;;;;;;;;10.70;99.90;;;;;;7329681;19;110301;-91
2023/01/30 13:38:16;;;;;;;;;;;10.70;99.90;;;;;;7326506;19;108722;-91
2023/01/30 13:40:43;;;;;;;;;;;10.70;99.90;;;;;;7329978;19;109050;-90
2023/01/30 13:43:15;;;;;;;;;;;10.80;99.90;;;;;;7333973;19;109068;-90
2023/01/30 13:45:44;;;;;;;;;;;10.90;99.90;;;;;;7331180;19;111114;-89
2023/01/30 13:48:30;;;;;;;;;;;10.90;99.90;;;;;;7332001;19;108966;-90
2023/01/30 13:51:24;;;;;;;;;;;11.00;99.90;;;;;;7335019;19;109953;-89
2023/01/30 13:54:01;;;;;;;;;;;10.90;99.90;;;;;;7332760;19;111194;-90
2023/01/30 13:56:28;;;;;;;;;;;10.80;99.90;;;;;;7330068;19;109370;-91
2023/01/30 13:59:10;;;;;;;;;;;10.80;99.90;;;;;;7324409;19;109768;-92
2023/01/30 14:01:56;;;;;;;;;;;10.80;99.90;;;;;;7330922;19;109242;-91
2023/01/30 14:04:29;;;;;;;;;;;10.80;99.90;;;;;;7328773;19;108563;-91
2023/01/30 14:07:11;;;;;;;;;;;10.90;99.90;;;;;;7338315;19;109671;-91
2023/01/30 14:10:01;;;;;;;;;;;10.90;99.90;;;;;;7328638;19;109576;-91
2023/01/30 14:12:36;;;;;;;;;;;11.00;99.90;;;;;;7328367;19;110799;-91
2023/01/30 14:15:17;;;;;;;;;;;11.00;99.90;;;;;;7331229;19;112902;-91
2023/01/30 14:18:06;;;;;;;;;;;11.00;99.90;;;;;;7340779;19;108446;-91
2023/01/30 14:20:44;;;;;;;;;;;11.20;99.90;;;;;;7334960;19;111948;-90
2023/01/30 14:23:27;;;;;;;;;;;11.10;99.90;;;;;;7338428;19;110899;-91
2023/01/30 14:25:57;;;;;;;;;;;11.10;99.90;;;;;;7337395;19;111631;-90
2023/01/30 14:28:24;;;;;;;;;;;11.10;99.90;;;;;;7334927;19;110655;-90
2023/01/30 14:30:58;;;;;;;;;;;11.10;99.90;;;;;;7342564;19;109609;-90
2023/01/30 14:33:25;;;;;;;;;;;11.10;99.90;;;;;;7336869;19;109608;-90
2023/01/30 14:36:01;;;;;;;;;;;11.10;99.90;;;;;;7339393;19;109466;-90
2023/01/30 14:38:29;;;;;;;;;;;11.10;99.90;;;;;;7336196;19;109437;-89
2023/01/30 14:40:59;;;;;;;;;;;11.00;99.90;;;;;;7337600;19;109169;-91
2023/01/30 14:43:34;;;;;;;;;;;10.90;99.90;;;;;;7331636;19;111890;-91